sensor_id;sensor_type;location;lat;lon;timestamp;pressure;altitude;pressure_sealevel;temperature;humidity
36378;BME280;22402;42.746;23.606;2023-07-13T00:02:05;93764.69;;;21.98;76.89
36378;BME280;22402;42.746;23.606;2023-07-13T00:04:30;93772.06;;;21.96;76.94
36378;BME280;22402;42.746;23.606;2023-07-13T00:06:56;93760.03;;;21.93;76.97
36378;BME280;22402;42.746;23.606;2023-07-13T00:09:21;93765.75;;;21.90;77.23
36378;BME280;22402;42.746;23.606;2023-07-13T00:11:51;93759.19;;;21.86;77.68
36378;BME280;22402;42.746;23.606;2023-07-13T00:14:17;93761.25;;;21.84;77.06
36378;BME280;22402;42.746;23.606;2023-07-13T00:16:43;93765.13;;;21.81;77.56
36378;BME280;22402;42.746;23.606;2023-07-13T00:19:09;93759.44;;;21.78;77.98
36378;BME280;22402;42.746;23.606;2023-07-13T00:21:35;93751.88;;;21.75;78.59
36378;BME280;22402;42.746;23.606;2023-07-13T00:24:01;93752.88;;;21.67;79.29
36378;BME280;22402;42.746;23.606;2023-07-13T00:26:26;93743.91;;;21.61;79.81
36378;BME280;22402;42.746;23.606;2023-07-13T00:28:52;93741.03;;;21.56;80.23
36378;BME280;22402;42.746;23.606;2023-07-13T00:31:17;93741.03;;;21.50;80.70
36378;BME280;22402;42.746;23.606;2023-07-13T00:33:43;93738.00;;;21.46;80.88
36378;BME280;22402;42.746;23.606;2023-07-13T00:36:10;93738.41;;;21.43;80.98
36378;BME280;22402;42.746;23.606;2023-07-13T00:38:35;93743.31;;;21.39;81.71
36378;BME280;22402;42.746;23.606;2023-07-13T00:41:03;93746.16;;;21.45;81.02
36378;BME280;22402;42.746;23.606;2023-07-13T00:43:29;93749.41;;;21.40;81.36
36378;BME280;22402;42.746;23.606;2023-07-13T00:48:43;93746.75;;;21.33;81.29
36378;BME280;22402;42.746;23.606;2023-07-13T00:51:11;93749.41;;;21.40;80.88
36378;BME280;22402;42.746;23.606;2023-07-13T00:53:38;93751.03;;;21.41;80.70
36378;BME280;22402;42.746;23.606;2023-07-13T00:56:04;93746.97;;;21.45;80.65
36378;BME280;22402;42.746;23.606;2023-07-13T00:58:30;93751.88;;;21.48;80.62
36378;BME280;22402;42.746;23.606;2023-07-13T01:00:56;93740.47;;;21.48;80.74
36378;BME280;22402;42.746;23.606;2023-07-13T01:03:21;93736.38;;;21.45;81.06
36378;BME280;22402;42.746;23.606;2023-07-13T01:05:48;93735.34;;;21.46;80.82
36378;BME280;22402;42.746;23.606;2023-07-13T01:08:15;93733.28;;;21.42;81.45
36378;BME280;22402;42.746;23.606;2023-07-13T01:10:42;93730.81;;;21.33;82.32
36378;BME280;22402;42.746;23.606;2023-07-13T01:13:15;93733.25;;;21.28;83.43
36378;BME280;22402;42.746;23.606;2023-07-13T01:15:46;93726.94;;;21.23;83.74
36378;BME280;22402;42.746;23.606;2023-07-13T01:18:24;93731.00;;;21.19;84.24
36378;BME280;22402;42.746;23.606;2023-07-13T01:21:08;93729.34;;;21.17;83.74
36378;BME280;22402;42.746;23.606;2023-07-13T01:23:33;93726.53;;;21.19;83.46
36378;BME280;22402;42.746;23.606;2023-07-13T01:25:59;93724.91;;;21.18;83.25
36378;BME280;22402;42.746;23.606;2023-07-13T01:28:27;93722.44;;;21.16;83.75
36378;BME280;22402;42.746;23.606;2023-07-13T01:30:54;93726.94;;;21.16;83.32
36378;BME280;22402;42.746;23.606;2023-07-13T01:33:20;93723.47;;;21.15;83.23
36378;BME280;22402;42.746;23.606;2023-07-13T01:35:47;93723.25;;;21.10;82.99
36378;BME280;22402;42.746;23.606;2023-07-13T01:38:18;93724.88;;;21.05;83.63
36378;BME280;22402;42.746;23.606;2023-07-13T01:40:44;93730.16;;;21.05;82.88
36378;BME280;22402;42.746;23.606;2023-07-13T01:43:10;93733.03;;;21.03;83.08
36378;BME280;22402;42.746;23.606;2023-07-13T01:45:36;93734.03;;;21.02;82.88
36378;BME280;22402;42.746;23.606;2023-07-13T01:48:01;93727.09;;;21.01;82.51
36378;BME280;22402;42.746;23.606;2023-07-13T01:50:27;93730.78;;;21.00;83.44
36378;BME280;22402;42.746;23.606;2023-07-13T01:52:53;93732.81;;;20.98;83.24
36378;BME280;22402;42.746;23.606;2023-07-13T01:55:20;93727.28;;;20.93;83.62
36378;BME280;22402;42.746;23.606;2023-07-13T01:57:45;93729.31;;;20.91;84.41
36378;BME280;22402;42.746;23.606;2023-07-13T02:00:12;93732.16;;;20.83;85.64
36378;BME280;22402;42.746;23.606;2023-07-13T02:02:38;93732.97;;;20.77;86.48
36378;BME280;22402;42.746;23.606;2023-07-13T02:05:04;93734.56;;;20.71;87.01
36378;BME280;22402;42.746;23.606;2023-07-13T02:07:30;93736.19;;;20.65;87.82
36378;BME280;22402;42.746;23.606;2023-07-13T02:09:56;93733.31;;;20.60;87.30
36378;BME280;22402;42.746;23.606;2023-07-13T02:12:22;93731.44;;;20.54;87.43
36378;BME280;22402;42.746;23.606;2023-07-13T02:14:48;93732.47;;;20.53;86.73
36378;BME280;22402;42.746;23.606;2023-07-13T02:17:13;93728.75;;;20.47;87.07
36378;BME280;22402;42.746;23.606;2023-07-13T02:19:39;93734.03;;;20.47;85.33
36378;BME280;22402;42.746;23.606;2023-07-13T02:22:05;93733.22;;;20.47;85.58
36378;BME280;22402;42.746;23.606;2023-07-13T02:24:31;93736.06;;;20.45;85.09
36378;BME280;22402;42.746;23.606;2023-07-13T02:26:56;93736.66;;;20.41;85.71
36378;BME280;22402;42.746;23.606;2023-07-13T02:29:22;93742.38;;;20.38;86.70
36378;BME280;22402;42.746;23.606;2023-07-13T02:31:48;93741.09;;;20.34;86.71
36378;BME280;22402;42.746;23.606;2023-07-13T02:34:13;93742.13;;;20.33;87.11
36378;BME280;22402;42.746;23.606;2023-07-13T02:36:39;93741.09;;;20.34;86.73
36378;BME280;22402;42.746;23.606;2023-07-13T02:39:05;93741.50;;;20.31;87.46
36378;BME280;22402;42.746;23.606;2023-07-13T02:41:31;93748.84;;;20.29;87.81
36378;BME280;22402;42.746;23.606;2023-07-13T02:44:00;93742.50;;;20.23;88.14
36378;BME280;22402;42.746;23.606;2023-07-13T02:51:33;93739.25;;;20.27;83.80
36378;BME280;22402;42.746;23.606;2023-07-13T02:54:00;93739.66;;;20.31;82.80
36378;BME280;22402;42.746;23.606;2023-07-13T02:56:28;93742.31;;;20.31;83.01
36378;BME280;22402;42.746;23.606;2023-07-13T02:58:57;93740.50;;;20.32;82.55
36378;BME280;22402;42.746;23.606;2023-07-13T03:01:22;93744.16;;;20.31;83.30
36378;BME280;22402;42.746;23.606;2023-07-13T03:03:50;93744.78;;;20.33;82.89
36378;BME280;22402;42.746;23.606;2023-07-13T03:06:16;93743.34;;;20.30;82.75
36378;BME280;22402;42.746;23.606;2023-07-13T03:08:43;93749.03;;;20.34;82.70
36378;BME280;22402;42.746;23.606;2023-07-13T03:11:11;93745.19;;;20.36;84.08
36378;BME280;22402;42.746;23.606;2023-07-13T03:13:39;93749.69;;;20.36;85.15
36378;BME280;22402;42.746;23.606;2023-07-13T03:16:05;93747.41;;;20.33;86.00
36378;BME280;22402;42.746;23.606;2023-07-13T03:18:31;93745.97;;;20.30;87.04
36378;BME280;22402;42.746;23.606;2023-07-13T03:20:56;93735.16;;;20.25;87.38
36378;BME280;22402;42.746;23.606;2023-07-13T03:23:22;93735.16;;;20.25;87.23
36378;BME280;22402;42.746;23.606;2023-07-13T03:25:48;93740.03;;;20.21;87.42
36378;BME280;22402;42.746;23.606;2023-07-13T03:28:14;93740.25;;;20.20;87.20
36378;BME280;22402;42.746;23.606;2023-07-13T03:30:41;93743.69;;;20.20;86.44
36378;BME280;22402;42.746;23.606;2023-07-13T03:33:07;93744.94;;;20.24;85.47
36378;BME280;22402;42.746;23.606;2023-07-13T03:35:33;93741.66;;;20.22;84.38
36378;BME280;22402;42.746;23.606;2023-07-13T03:37:59;93748.59;;;20.23;85.59
36378;BME280;22402;42.746;23.606;2023-07-13T03:40:26;93749.03;;;20.27;85.17
36378;BME280;22402;42.746;23.606;2023-07-13T03:42:52;93751.28;;;20.30;84.21
36378;BME280;22402;42.746;23.606;2023-07-13T03:45:17;93756.19;;;20.33;84.09
36378;BME280;22402;42.746;23.606;2023-07-13T03:47:43;93759.22;;;20.30;85.10
36378;BME280;22402;42.746;23.606;2023-07-13T03:50:09;93752.09;;;20.31;85.33
36378;BME280;22402;42.746;23.606;2023-07-13T03:52:34;93751.91;;;20.32;85.96
36378;BME280;22402;42.746;23.606;2023-07-13T03:55:00;93747.03;;;20.36;86.28
36378;BME280;22402;42.746;23.606;2023-07-13T03:57:25;93750.91;;;20.40;86.18
36378;BME280;22402;42.746;23.606;2023-07-13T03:59:51;93752.75;;;20.39;86.55
36378;BME280;22402;42.746;23.606;2023-07-13T04:02:16;93748.69;;;20.43;86.69
36378;BME280;22402;42.746;23.606;2023-07-13T04:04:43;93750.34;;;20.51;87.09
36378;BME280;22402;42.746;23.606;2023-07-13T04:07:08;93755.28;;;20.54;87.42
36378;BME280;22402;42.746;23.606;2023-07-13T04:09:34;93765.72;;;20.62;87.79
36378;BME280;22402;42.746;23.606;2023-07-13T04:12:01;93770.22;;;20.68;89.08
36378;BME280;22402;42.746;23.606;2023-07-13T04:14:26;93769.22;;;20.76;89.92
36378;BME280;22402;42.746;23.606;2023-07-13T04:16:52;93765.78;;;20.82;90.41
36378;BME280;22402;42.746;23.606;2023-07-13T04:19:20;93770.09;;;20.90;89.76
36378;BME280;22402;42.746;23.606;2023-07-13T04:21:45;93766.22;;;20.99;90.71
36378;BME280;22402;42.746;23.606;2023-07-13T04:24:11;93757.47;;;21.05;90.83
36378;BME280;22402;42.746;23.606;2023-07-13T04:26:36;93760.16;;;21.12;90.07
36378;BME280;22402;42.746;23.606;2023-07-13T04:29:04;93766.06;;;21.21;89.63
36378;BME280;22402;42.746;23.606;2023-07-13T04:31:30;93773.03;;;21.28;89.04
36378;BME280;22402;42.746;23.606;2023-07-13T04:33:55;93769.41;;;21.36;88.40
36378;BME280;22402;42.746;23.606;2023-07-13T04:36:21;93768.38;;;21.44;88.91
36378;BME280;22402;42.746;23.606;2023-07-13T04:38:47;93759.44;;;21.51;88.35
36378;BME280;22402;42.746;23.606;2023-07-13T04:41:14;93755.16;;;21.64;86.86
36378;BME280;22402;42.746;23.606;2023-07-13T04:43:40;93759.84;;;21.75;86.44
36378;BME280;22402;42.746;23.606;2023-07-13T04:46:11;93766.16;;;21.87;85.77
36378;BME280;22402;42.746;23.606;2023-07-13T04:48:37;93770.63;;;22.00;85.22
36378;BME280;22402;42.746;23.606;2023-07-13T04:51:02;93768.16;;;22.12;84.95
36378;BME280;22402;42.746;23.606;2023-07-13T04:53:29;93771.44;;;22.27;84.74
36378;BME280;22402;42.746;23.606;2023-07-13T04:55:54;93767.53;;;22.43;84.58
36378;BME280;22402;42.746;23.606;2023-07-13T04:58:21;93777.06;;;22.57;84.13
36378;BME280;22402;42.746;23.606;2023-07-13T05:00:48;93778.47;;;22.66;83.80
36378;BME280;22402;42.746;23.606;2023-07-13T05:03:13;93783.34;;;22.76;84.29
36378;BME280;22402;42.746;23.606;2023-07-13T05:05:38;93790.06;;;22.85;84.65
36378;BME280;22402;42.746;23.606;2023-07-13T05:08:04;93792.47;;;22.93;85.59
36378;BME280;22402;42.746;23.606;2023-07-13T05:10:29;93791.66;;;23.00;85.37
36378;BME280;22402;42.746;23.606;2023-07-13T05:12:55;93793.25;;;23.07;85.74
36378;BME280;22402;42.746;23.606;2023-07-13T05:15:22;93792.19;;;23.15;86.00
36378;BME280;22402;42.746;23.606;2023-07-13T05:17:48;93782.94;;;23.24;85.99
36378;BME280;22402;42.746;23.606;2023-07-13T05:20:15;93788.97;;;23.38;86.33
36378;BME280;22402;42.746;23.606;2023-07-13T05:22:41;93787.66;;;23.54;86.23
36378;BME280;22402;42.746;23.606;2023-07-13T05:25:07;93791.25;;;23.73;85.67
36378;BME280;22402;42.746;23.606;2023-07-13T05:27:34;93793.94;;;23.91;84.61
36378;BME280;22402;42.746;23.606;2023-07-13T05:29:59;93799.56;;;24.08;84.00
36378;BME280;22402;42.746;23.606;2023-07-13T05:32:25;93791.03;;;24.24;84.07
36378;BME280;22402;42.746;23.606;2023-07-13T05:34:51;93786.97;;;24.40;83.83
36378;BME280;22402;42.746;23.606;2023-07-13T05:37:16;93793.13;;;24.59;83.27
36378;BME280;22402;42.746;23.606;2023-07-13T05:39:42;93793.97;;;24.78;82.83
36378;BME280;22402;42.746;23.606;2023-07-13T05:42:07;93799.03;;;24.98;82.20
36378;BME280;22402;42.746;23.606;2023-07-13T05:44:33;93808.25;;;25.20;81.24
36378;BME280;22402;42.746;23.606;2023-07-13T05:46:58;93811.22;;;25.42;80.08
36378;BME280;22402;42.746;23.606;2023-07-13T05:49:24;93811.75;;;25.63;78.43
36378;BME280;22402;42.746;23.606;2023-07-13T05:51:49;93817.28;;;25.80;77.31
36378;BME280;22402;42.746;23.606;2023-07-13T05:54:15;93817.88;;;25.94;75.54
36378;BME280;22402;42.746;23.606;2023-07-13T05:56:40;93816.88;;;26.06;75.04
36378;BME280;22402;42.746;23.606;2023-07-13T05:59:06;93817.47;;;26.20;73.92
36378;BME280;22402;42.746;23.606;2023-07-13T06:01:31;93822.81;;;26.32;72.53
36378;BME280;22402;42.746;23.606;2023-07-13T06:03:57;93822.59;;;26.45;70.91
36378;BME280;22402;42.746;23.606;2023-07-13T06:06:23;93824.50;;;26.56;70.98
36378;BME280;22402;42.746;23.606;2023-07-13T06:08:48;93827.72;;;26.70;70.60
36378;BME280;22402;42.746;23.606;2023-07-13T06:11:17;93821.56;;;26.81;69.80
36378;BME280;22402;42.746;23.606;2023-07-13T06:13:43;93815.59;;;26.91;69.47
36378;BME280;22402;42.746;23.606;2023-07-13T06:16:10;93822.19;;;27.00;69.34
36378;BME280;22402;42.746;23.606;2023-07-13T06:18:36;93806.38;;;27.11;69.29
36378;BME280;22402;42.746;23.606;2023-07-13T06:21:11;93808.22;;;27.22;68.87
36378;BME280;22402;42.746;23.606;2023-07-13T06:23:37;93814.91;;;27.36;68.48
36378;BME280;22402;42.746;23.606;2023-07-13T06:26:03;93812.44;;;27.46;68.25
36378;BME280;22402;42.746;23.606;2023-07-13T06:28:29;93811.09;;;27.61;68.26
36378;BME280;22402;42.746;23.606;2023-07-13T06:30:57;93815.66;;;27.77;67.35
36378;BME280;22402;42.746;23.606;2023-07-13T06:33:22;93817.00;;;27.91;66.38
36378;BME280;22402;42.746;23.606;2023-07-13T06:35:48;93822.03;;;28.05;65.73
36378;BME280;22402;42.746;23.606;2023-07-13T06:38:13;93818.00;;;28.19;65.67
36378;BME280;22402;42.746;23.606;2023-07-13T06:40:39;93815.53;;;28.34;65.24
36378;BME280;22402;42.746;23.606;2023-07-13T06:43:04;93811.50;;;28.49;64.72
36378;BME280;22402;42.746;23.606;2023-07-13T06:45:29;93806.94;;;28.66;64.38
36378;BME280;22402;42.746;23.606;2023-07-13T06:47:55;93807.22;;;28.87;63.96
36378;BME280;22402;42.746;23.606;2023-07-13T06:50:20;93802.63;;;29.04;63.11
36378;BME280;22402;42.746;23.606;2023-07-13T06:52:46;93794.25;;;29.22;62.76
36378;BME280;22402;42.746;23.606;2023-07-13T06:55:11;93801.41;;;29.39;62.32
36378;BME280;22402;42.746;23.606;2023-07-13T06:57:37;93794.66;;;29.58;61.48
36378;BME280;22402;42.746;23.606;2023-07-13T07:00:02;93796.94;;;29.71;60.83
36378;BME280;22402;42.746;23.606;2023-07-13T07:02:28;93805.19;;;29.87;60.82
36378;BME280;22402;42.746;23.606;2023-07-13T07:04:53;93806.16;;;30.08;60.71
36378;BME280;22402;42.746;23.606;2023-07-13T07:07:19;93799.09;;;30.29;60.00
36378;BME280;22402;42.746;23.606;2023-07-13T07:09:45;93808.94;;;30.50;59.51
36378;BME280;22402;42.746;23.606;2023-07-13T07:12:10;93798.03;;;30.72;59.29
36378;BME280;22402;42.746;23.606;2023-07-13T07:14:35;93808.69;;;30.99;58.82
36378;BME280;22402;42.746;23.606;2023-07-13T07:17:01;93805.56;;;31.23;56.66
36378;BME280;22402;42.746;23.606;2023-07-13T07:19:30;93800.28;;;31.43;56.87
36378;BME280;22402;42.746;23.606;2023-07-13T07:21:55;93810.59;;;31.67;56.84
36378;BME280;22402;42.746;23.606;2023-07-13T07:24:21;93808.78;;;31.93;55.62
36378;BME280;22402;42.746;23.606;2023-07-13T07:26:47;93814.47;;;32.17;55.24
36378;BME280;22402;42.746;23.606;2023-07-13T07:29:12;93813.38;;;32.43;55.25
36378;BME280;22402;42.746;23.606;2023-07-13T07:31:38;93796.66;;;32.67;54.01
36378;BME280;22402;42.746;23.606;2023-07-13T07:34:03;93803.88;;;32.92;52.73
36378;BME280;22402;42.746;23.606;2023-07-13T07:36:29;93810.34;;;33.11;51.84
36378;BME280;22402;42.746;23.606;2023-07-13T07:38:54;93806.78;;;33.26;51.46
36378;BME280;22402;42.746;23.606;2023-07-13T07:41:20;93802.63;;;33.44;50.56
36378;BME280;22402;42.746;23.606;2023-07-13T07:43:46;93796.88;;;33.66;49.68
36378;BME280;22402;42.746;23.606;2023-07-13T07:46:11;93794.84;;;33.87;49.31
36378;BME280;22402;42.746;23.606;2023-07-13T07:48:37;93792.25;;;34.11;48.33
36378;BME280;22402;42.746;23.606;2023-07-13T07:51:02;93785.56;;;34.38;47.44
36378;BME280;22402;42.746;23.606;2023-07-13T07:53:28;93787.50;;;34.66;46.89
36378;BME280;22402;42.746;23.606;2023-07-13T07:55:53;93787.97;;;34.98;44.98
36378;BME280;22402;42.746;23.606;2023-07-13T07:58:19;93789.63;;;35.23;44.89
36378;BME280;22402;42.746;23.606;2023-07-13T08:00:44;93779.50;;;35.52;44.12
36378;BME280;22402;42.746;23.606;2023-07-13T08:03:10;93786.94;;;35.85;43.78
36378;BME280;22402;42.746;23.606;2023-07-13T08:05:36;93784.78;;;36.19;42.87
36378;BME280;22402;42.746;23.606;2023-07-13T08:08:02;93774.25;;;36.50;41.58
36378;BME280;22402;42.746;23.606;2023-07-13T08:10:28;93785.19;;;36.78;41.48
36378;BME280;22402;42.746;23.606;2023-07-13T08:12:53;93778.56;;;36.98;41.02
36378;BME280;22402;42.746;23.606;2023-07-13T08:15:19;93771.94;;;37.18;39.17
36378;BME280;22402;42.746;23.606;2023-07-13T08:17:47;93767.13;;;37.43;39.18
36378;BME280;22402;42.746;23.606;2023-07-13T08:20:13;93765.34;;;37.74;38.79
36378;BME280;22402;42.746;23.606;2023-07-13T08:22:39;93770.63;;;38.07;38.89
36378;BME280;22402;42.746;23.606;2023-07-13T08:25:04;93770.41;;;38.40;37.50
36378;BME280;22402;42.746;23.606;2023-07-13T08:27:30;93768.50;;;38.71;35.88
36378;BME280;22402;42.746;23.606;2023-07-13T08:29:55;93768.97;;;38.96;35.64
36378;BME280;22402;42.746;23.606;2023-07-13T08:32:22;93773.09;;;39.25;35.53
36378;BME280;22402;42.746;23.606;2023-07-13T08:34:48;93764.69;;;39.52;34.72
36378;BME280;22402;42.746;23.606;2023-07-13T08:37:14;93766.69;;;39.78;33.17
36378;BME280;22402;42.746;23.606;2023-07-13T08:39:40;93755.28;;;40.02;32.79
36378;BME280;22402;42.746;23.606;2023-07-13T08:44:56;93755.75;;;40.47;32.05
36378;BME280;22402;42.746;23.606;2023-07-13T08:47:23;93755.72;;;40.73;31.75
36378;BME280;22402;42.746;23.606;2023-07-13T08:49:50;93758.38;;;41.08;30.94
36378;BME280;22402;42.746;23.606;2023-07-13T08:52:31;93758.69;;;41.36;30.89
36378;BME280;22402;42.746;23.606;2023-07-13T08:55:03;93753.44;;;41.61;30.23
36378;BME280;22402;42.746;23.606;2023-07-13T08:57:33;93763.84;;;41.67;29.03
36378;BME280;22402;42.746;23.606;2023-07-13T08:59:59;93769.47;;;41.71;28.50
36378;BME280;22402;42.746;23.606;2023-07-13T09:02:28;93773.88;;;41.84;28.46
36378;BME280;22402;42.746;23.606;2023-07-13T09:04:59;93768.50;;;41.97;27.96
36378;BME280;22402;42.746;23.606;2023-07-13T09:15:37;93778.53;;;43.13;27.12
36378;BME280;22402;42.746;23.606;2023-07-13T09:21:10;93776.53;;;43.72;26.17
36378;BME280;22402;42.746;23.606;2023-07-13T09:23:38;93773.41;;;43.98;25.68
36378;BME280;22402;42.746;23.606;2023-07-13T09:26:09;93771.28;;;44.19;25.26
36378;BME280;22402;42.746;23.606;2023-07-13T09:28:41;93774.88;;;44.48;24.44
36378;BME280;22402;42.746;23.606;2023-07-13T09:31:13;93780.16;;;44.69;24.08
36378;BME280;22402;42.746;23.606;2023-07-13T09:33:39;93776.75;;;44.88;24.12
36378;BME280;22402;42.746;23.606;2023-07-13T09:36:26;93787.50;;;45.09;23.46
36378;BME280;22402;42.746;23.606;2023-07-13T09:42:15;93772.53;;;45.54;23.38
36378;BME280;22402;42.746;23.606;2023-07-13T09:44:56;93775.97;;;45.82;23.50
36378;BME280;22402;42.746;23.606;2023-07-13T09:47:25;93767.75;;;46.02;23.51
36378;BME280;22402;42.746;23.606;2023-07-13T09:50:06;93769.09;;;46.27;23.26
36378;BME280;22402;42.746;23.606;2023-07-13T09:52:48;93763.28;;;46.52;23.26
36378;BME280;22402;42.746;23.606;2023-07-13T09:55:31;93757.78;;;46.71;23.05
36378;BME280;22402;42.746;23.606;2023-07-13T09:58:10;93758.47;;;46.88;22.21
36378;BME280;22402;42.746;23.606;2023-07-13T10:00:37;93760.03;;;47.08;22.07
36378;BME280;22402;42.746;23.606;2023-07-13T10:03:09;93755.25;;;47.28;21.74
36378;BME280;22402;42.746;23.606;2023-07-13T10:05:44;93762.66;;;47.47;21.65
36378;BME280;22402;42.746;23.606;2023-07-13T10:10:53;93748.66;;;47.86;21.55
36378;BME280;22402;42.746;23.606;2023-07-13T10:13:34;93755.63;;;48.03;20.79
36378;BME280;22402;42.746;23.606;2023-07-13T10:16:03;93741.59;;;48.15;20.70
36378;BME280;22402;42.746;23.606;2023-07-13T10:18:33;93745.19;;;48.19;20.99
36378;BME280;22402;42.746;23.606;2023-07-13T10:21:11;93737.00;;;48.26;20.74
36378;BME280;22402;42.746;23.606;2023-07-13T10:23:37;93737.78;;;48.27;21.03
36378;BME280;22402;42.746;23.606;2023-07-13T10:26:03;93745.31;;;48.30;20.79
36378;BME280;22402;42.746;23.606;2023-07-13T10:28:37;93738.78;;;48.45;20.65
36378;BME280;22402;42.746;23.606;2023-07-13T10:31:05;93731.81;;;48.55;20.36
36378;BME280;22402;42.746;23.606;2023-07-13T10:33:36;93733.56;;;48.70;20.07
36378;BME280;22402;42.746;23.606;2023-07-13T10:36:13;93733.50;;;48.67;19.96
36378;BME280;22402;42.746;23.606;2023-07-13T10:38:40;93730.34;;;48.65;20.29
36378;BME280;22402;42.746;23.606;2023-07-13T10:41:10;93726.44;;;48.73;20.46
36378;BME280;22402;42.746;23.606;2023-07-13T10:43:40;93722.28;;;48.86;20.32
36378;BME280;22402;42.746;23.606;2023-07-13T10:46:10;93724.78;;;49.02;20.09
36378;BME280;22402;42.746;23.606;2023-07-13T10:48:36;93717.78;;;49.12;20.47
36378;BME280;22402;42.746;23.606;2023-07-13T10:51:05;93715.06;;;49.19;20.05
36378;BME280;22402;42.746;23.606;2023-07-13T10:53:34;93710.47;;;49.37;19.78
36378;BME280;22402;42.746;23.606;2023-07-13T10:56:05;93712.94;;;49.53;19.74
36378;BME280;22402;42.746;23.606;2023-07-13T10:58:40;93699.88;;;49.50;19.83
36378;BME280;22402;42.746;23.606;2023-07-13T11:01:09;93704.59;;;49.46;19.73
36378;BME280;22402;42.746;23.606;2023-07-13T11:03:38;93699.56;;;49.59;19.90
36378;BME280;22402;42.746;23.606;2023-07-13T11:19:08;93696.41;;;50.33;18.95
36378;BME280;22402;42.746;23.606;2023-07-13T11:22:02;93684.16;;;50.45;18.70
36378;BME280;22402;42.746;23.606;2023-07-13T11:27:41;93681.88;;;50.72;18.86
36378;BME280;22402;42.746;23.606;2023-07-13T11:33:23;93672.75;;;50.82;18.78
36378;BME280;22402;42.746;23.606;2023-07-13T11:36:15;93686.63;;;50.82;18.50
36378;BME280;22402;42.746;23.606;2023-07-13T11:38:43;93681.09;;;50.86;18.36
36378;BME280;22402;42.746;23.606;2023-07-13T11:41:16;93675.94;;;50.84;17.75
36378;BME280;22402;42.746;23.606;2023-07-13T11:43:42;93670.00;;;50.93;17.94
36378;BME280;22402;42.746;23.606;2023-07-13T11:46:22;93664.81;;;50.77;17.49
36378;BME280;22402;42.746;23.606;2023-07-13T11:48:49;93662.78;;;50.53;17.21
36378;BME280;22402;42.746;23.606;2023-07-13T11:51:22;93665.16;;;50.44;17.54
36378;BME280;22402;42.746;23.606;2023-07-13T11:53:50;93660.41;;;50.48;18.34
36378;BME280;22402;42.746;23.606;2023-07-13T11:56:16;93648.13;;;50.49;18.51
36378;BME280;22402;42.746;23.606;2023-07-13T11:58:42;93650.09;;;50.41;17.98
36378;BME280;22402;42.746;23.606;2023-07-13T12:01:16;93657.13;;;50.24;18.78
36378;BME280;22402;42.746;23.606;2023-07-13T12:03:44;93657.13;;;50.13;19.18
36378;BME280;22402;42.746;23.606;2023-07-13T12:06:30;93640.34;;;49.88;19.12
36378;BME280;22402;42.746;23.606;2023-07-13T12:09:00;93638.72;;;49.73;18.37
36378;BME280;22402;42.746;23.606;2023-07-13T12:11:29;93637.91;;;49.69;17.87
36378;BME280;22402;42.746;23.606;2023-07-13T12:13:54;93626.06;;;49.72;16.70
36378;BME280;22402;42.746;23.606;2023-07-13T12:16:29;93622.50;;;49.75;17.45
36378;BME280;22402;42.746;23.606;2023-07-13T12:18:56;93623.66;;;49.70;17.76
36378;BME280;22402;42.746;23.606;2023-07-13T12:21:29;93611.00;;;49.66;17.57
36378;BME280;22402;42.746;23.606;2023-07-13T12:23:55;93618.88;;;49.64;17.32
36378;BME280;22402;42.746;23.606;2023-07-13T12:26:20;93612.56;;;49.70;17.53
36378;BME280;22402;42.746;23.606;2023-07-13T12:28:52;93612.97;;;49.69;16.70
36378;BME280;22402;42.746;23.606;2023-07-13T12:36:30;93601.78;;;49.47;17.11
36378;BME280;22402;42.746;23.606;2023-07-13T12:39:00;93595.75;;;49.31;17.01
36378;BME280;22402;42.746;23.606;2023-07-13T12:41:30;93589.31;;;49.20;17.02
36378;BME280;22402;42.746;23.606;2023-07-13T12:43:55;93601.13;;;49.13;17.34
36378;BME280;22402;42.746;23.606;2023-07-13T12:46:23;93599.78;;;48.89;17.06
36378;BME280;22402;42.746;23.606;2023-07-13T12:48:53;93581.13;;;48.79;17.36
36378;BME280;22402;42.746;23.606;2023-07-13T12:51:25;93578.34;;;48.79;17.53
36378;BME280;22402;42.746;23.606;2023-07-13T12:53:57;93578.44;;;48.90;17.21
36378;BME280;22402;42.746;23.606;2023-07-13T12:56:26;93579.66;;;48.96;17.69
36378;BME280;22402;42.746;23.606;2023-07-13T12:58:58;93578.50;;;48.97;17.13
36378;BME280;22402;42.746;23.606;2023-07-13T13:01:27;93571.47;;;48.58;16.62
36378;BME280;22402;42.746;23.606;2023-07-13T13:03:54;93566.06;;;48.32;18.00
36378;BME280;22402;42.746;23.606;2023-07-13T13:06:28;93571.72;;;48.05;17.15
36378;BME280;22402;42.746;23.606;2023-07-13T13:08:55;93569.53;;;47.88;18.50
36378;BME280;22402;42.746;23.606;2023-07-13T13:11:24;93571.75;;;47.75;18.79
36378;BME280;22402;42.746;23.606;2023-07-13T13:13:51;93568.88;;;47.68;18.78
36378;BME280;22402;42.746;23.606;2023-07-13T13:16:44;93569.66;;;47.68;18.08
36378;BME280;22402;42.746;23.606;2023-07-13T13:19:14;93552.69;;;47.66;18.28
36378;BME280;22402;42.746;23.606;2023-07-13T13:21:42;93564.91;;;47.65;18.27
36378;BME280;22402;42.746;23.606;2023-07-13T13:24:17;93565.66;;;47.62;17.62
36378;BME280;22402;42.746;23.606;2023-07-13T13:26:47;93561.84;;;47.40;17.76
36378;BME280;22402;42.746;23.606;2023-07-13T13:29:19;93555.00;;;47.31;18.43
36378;BME280;22402;42.746;23.606;2023-07-13T13:31:44;93557.78;;;47.34;18.59
36378;BME280;22402;42.746;23.606;2023-07-13T13:34:12;93545.28;;;47.40;19.48
36378;BME280;22402;42.746;23.606;2023-07-13T13:36:39;93551.06;;;47.32;18.34
36378;BME280;22402;42.746;23.606;2023-07-13T13:39:24;93548.09;;;47.17;18.78
36378;BME280;22402;42.746;23.606;2023-07-13T13:41:52;93542.94;;;47.12;19.27
36378;BME280;22402;42.746;23.606;2023-07-13T13:44:19;93556.25;;;47.07;19.88
36378;BME280;22402;42.746;23.606;2023-07-13T13:46:46;93545.56;;;46.78;18.59